sensor_id;sensor_type;location;lat;lon;timestamp;P1;P2;P0
61760;PMS5003;47664;51.660;-0.100;2023-08-01T00:00:43;8;6;
61760;PMS5003;47664;51.660;-0.100;2023-08-01T00:03:11;6;3;
61760;PMS5003;47664;51.660;-0.100;2023-08-01T00:05:38;6;5;
61760;PMS5003;47664;51.660;-0.100;2023-08-01T00:08:05;6;4;
61760;PMS5003;47664;51.660;-0.100;2023-08-01T00:10:32;6;5;
61760;PMS5003;47664;51.660;-0.100;2023-08-01T00:12:59;5;4;
61760;PMS5003;47664;51.660;-0.100;2023-08-01T00:15:26;9;6;
61760;PMS5003;47664;51.660;-0.100;2023-08-01T00:17:54;6;6;
61760;PMS5003;47664;51.660;-0.100;2023-08-01T00:20:21;6;5;
61760;PMS5003;47664;51.660;-0.100;2023-08-01T00:22:48;8;4;
61760;PMS5003;47664;51.660;-0.100;2023-08-01T00:25:16;11;7;
61760;PMS5003;47664;51.660;-0.100;2023-08-01T00:27:44;5;5;
61760;PMS5003;47664;51.660;-0.100;2023-08-01T00:30:10;8;5;
61760;PMS5003;47664;51.660;-0.100;2023-08-01T00:32:37;10;7;
61760;PMS5003;47664;51.660;-0.100;2023-08-01T00:35:05;9;6;
61760;PMS5003;47664;51.660;-0.100;2023-08-01T00:37:32;7;6;
61760;PMS5003;47664;51.660;-0.100;2023-08-01T00:39:59;9;6;
61760;PMS5003;47664;51.660;-0.100;2023-08-01T00:42:26;6;4;
61760;PMS5003;47664;51.660;-0.100;2023-08-01T00:44:53;5;3;
61760;PMS5003;47664;51.660;-0.100;2023-08-01T00:47:20;8;5;
61760;PMS5003;47664;51.660;-0.100;2023-08-01T00:49:47;9;6;
61760;PMS5003;47664;51.660;-0.100;2023-08-01T00:52:15;8;5;
61760;PMS5003;47664;51.660;-0.100;2023-08-01T00:54:42;5;5;
61760;PMS5003;47664;51.660;-0.100;2023-08-01T00:57:09;13;6;
61760;PMS5003;47664;51.660;-0.100;2023-08-01T00:59:37;7;4;
61760;PMS5003;47664;51.660;-0.100;2023-08-01T01:02:04;7;6;
61760;PMS5003;47664;51.660;-0.100;2023-08-01T01:04:30;7;5;
61760;PMS5003;47664;51.660;-0.100;2023-08-01T01:07:00;8;4;
61760;PMS5003;47664;51.660;-0.100;2023-08-01T01:09:29;12;10;
61760;PMS5003;47664;51.660;-0.100;2023-08-01T01:11:57;7;7;
61760;PMS5003;47664;51.660;-0.100;2023-08-01T01:14:24;6;6;
61760;PMS5003;47664;51.660;-0.100;2023-08-01T01:16:52;10;6;
61760;PMS5003;47664;51.660;-0.100;2023-08-01T01:19:19;6;4;
61760;PMS5003;47664;51.660;-0.100;2023-08-01T01:21:46;7;5;
61760;PMS5003;47664;51.660;-0.100;2023-08-01T01:24:15;6;4;
61760;PMS5003;47664;51.660;-0.100;2023-08-01T01:26:45;6;4;
61760;PMS5003;47664;51.660;-0.100;2023-08-01T01:29:14;9;6;
61760;PMS5003;47664;51.660;-0.100;2023-08-01T01:31:42;8;7;
61760;PMS5003;47664;51.660;-0.100;2023-08-01T01:34:10;9;7;
61760;PMS5003;47664;51.660;-0.100;2023-08-01T01:36:38;8;6;
61760;PMS5003;47664;51.660;-0.100;2023-08-01T01:39:05;7;7;
61760;PMS5003;47664;51.660;-0.100;2023-08-01T01:41:32;11;7;
61760;PMS5003;47664;51.660;-0.100;2023-08-01T01:43:59;10;8;
61760;PMS5003;47664;51.660;-0.100;2023-08-01T01:46:26;5;5;
61760;PMS5003;47664;51.660;-0.100;2023-08-01T01:48:53;7;7;
61760;PMS5003;47664;51.660;-0.100;2023-08-01T01:51:21;7;6;
61760;PMS5003;47664;51.660;-0.100;2023-08-01T01:53:47;9;6;
61760;PMS5003;47664;51.660;-0.100;2023-08-01T01:56:14;9;8;
61760;PMS5003;47664;51.660;-0.100;2023-08-01T01:58:42;13;8;
61760;PMS5003;47664;51.660;-0.100;2023-08-01T02:01:09;5;5;
61760;PMS5003;47664;51.660;-0.100;2023-08-01T02:03:36;12;9;
61760;PMS5003;47664;51.660;-0.100;2023-08-01T02:06:03;9;8;
61760;PMS5003;47664;51.660;-0.100;2023-08-01T02:08:30;9;7;
61760;PMS5003;47664;51.660;-0.100;2023-08-01T02:10:58;9;7;
61760;PMS5003;47664;51.660;-0.100;2023-08-01T02:13:25;8;6;
61760;PMS5003;47664;51.660;-0.100;2023-08-01T02:15:53;13;7;
61760;PMS5003;47664;51.660;-0.100;2023-08-01T02:18:20;13;6;
61760;PMS5003;47664;51.660;-0.100;2023-08-01T02:20:47;7;6;
61760;PMS5003;47664;51.660;-0.100;2023-08-01T02:23:14;7;7;
61760;PMS5003;47664;51.660;-0.100;2023-08-01T02:25:41;8;6;
61760;PMS5003;47664;51.660;-0.100;2023-08-01T02:28:09;7;7;
61760;PMS5003;47664;51.660;-0.100;2023-08-01T02:30:36;7;6;
61760;PMS5003;47664;51.660;-0.100;2023-08-01T02:33:03;14;11;
61760;PMS5003;47664;51.660;-0.100;2023-08-01T02:35:30;10;8;
61760;PMS5003;47664;51.660;-0.100;2023-08-01T02:37:58;15;13;
61760;PMS5003;47664;51.660;-0.100;2023-08-01T02:40:25;10;7;
61760;PMS5003;47664;51.660;-0.100;2023-08-01T02:42:53;7;7;
61760;PMS5003;47664;51.660;-0.100;2023-08-01T02:45:20;10;8;
61760;PMS5003;47664;51.660;-0.100;2023-08-01T02:47:47;11;9;
61760;PMS5003;47664;51.660;-0.100;2023-08-01T02:50:14;8;8;
61760;PMS5003;47664;51.660;-0.100;2023-08-01T02:52:42;7;7;
61760;PMS5003;47664;51.660;-0.100;2023-08-01T02:55:09;7;7;
61760;PMS5003;47664;51.660;-0.100;2023-08-01T02:57:36;14;8;
61760;PMS5003;47664;51.660;-0.100;2023-08-01T03:00:04;9;6;
61760;PMS5003;47664;51.660;-0.100;2023-08-01T03:02:32;14;7;
61760;PMS5003;47664;51.660;-0.100;2023-08-01T03:04:58;13;7;
61760;PMS5003;47664;51.660;-0.100;2023-08-01T03:07:26;9;6;
61760;PMS5003;47664;51.660;-0.100;2023-08-01T03:09:53;18;11;
61760;PMS5003;47664;51.660;-0.100;2023-08-01T03:12:21;10;7;
61760;PMS5003;47664;51.660;-0.100;2023-08-01T03:14:48;9;7;
61760;PMS5003;47664;51.660;-0.100;2023-08-01T03:17:15;14;8;
61760;PMS5003;47664;51.660;-0.100;2023-08-01T03:19:42;12;9;
61760;PMS5003;47664;51.660;-0.100;2023-08-01T03:22:09;6;6;
61760;PMS5003;47664;51.660;-0.100;2023-08-01T03:24:37;8;5;
61760;PMS5003;47664;51.660;-0.100;2023-08-01T03:27:04;14;8;
61760;PMS5003;47664;51.660;-0.100;2023-08-01T03:29:32;11;7;
61760;PMS5003;47664;51.660;-0.100;2023-08-01T03:31:59;8;7;
61760;PMS5003;47664;51.660;-0.100;2023-08-01T03:34:26;7;6;
61760;PMS5003;47664;51.660;-0.100;2023-08-01T03:36:53;14;9;
61760;PMS5003;47664;51.660;-0.100;2023-08-01T03:39:20;10;7;
61760;PMS5003;47664;51.660;-0.100;2023-08-01T03:41:47;6;5;
61760;PMS5003;47664;51.660;-0.100;2023-08-01T03:44:14;8;7;
61760;PMS5003;47664;51.660;-0.100;2023-08-01T03:46:41;6;6;
61760;PMS5003;47664;51.660;-0.100;2023-08-01T03:49:08;11;8;
61760;PMS5003;47664;51.660;-0.100;2023-08-01T03:51:35;6;6;
61760;PMS5003;47664;51.660;-0.100;2023-08-01T03:54:02;7;7;
61760;PMS5003;47664;51.660;-0.100;2023-08-01T03:56:30;16;10;
61760;PMS5003;47664;51.660;-0.100;2023-08-01T03:58:57;8;7;
61760;PMS5003;47664;51.660;-0.100;2023-08-01T04:01:24;7;5;
61760;PMS5003;47664;51.660;-0.100;2023-08-01T04:03:51;10;5;
61760;PMS5003;47664;51.660;-0.100;2023-08-01T04:06:18;11;7;
61760;PMS5003;47664;51.660;-0.100;2023-08-01T04:08:45;8;6;
61760;PMS5003;47664;51.660;-0.100;2023-08-01T04:11:13;9;8;
61760;PMS5003;47664;51.660;-0.100;2023-08-01T04:13:40;5;5;
61760;PMS5003;47664;51.660;-0.100;2023-08-01T04:16:07;9;7;
61760;PMS5003;47664;51.660;-0.100;2023-08-01T04:18:34;10;7;
61760;PMS5003;47664;51.660;-0.100;2023-08-01T04:21:01;11;9;
61760;PMS5003;47664;51.660;-0.100;2023-08-01T04:23:29;6;6;
61760;PMS5003;47664;51.660;-0.100;2023-08-01T04:25:56;6;6;
61760;PMS5003;47664;51.660;-0.100;2023-08-01T04:28:23;11;7;
61760;PMS5003;47664;51.660;-0.100;2023-08-01T04:30:50;8;7;
61760;PMS5003;47664;51.660;-0.100;2023-08-01T04:33:18;11;8;
61760;PMS5003;47664;51.660;-0.100;2023-08-01T04:35:45;5;4;
61760;PMS5003;47664;51.660;-0.100;2023-08-01T04:38:13;11;7;
61760;PMS5003;47664;51.660;-0.100;2023-08-01T04:40:40;11;7;
61760;PMS5003;47664;51.660;-0.100;2023-08-01T04:43:07;9;7;
61760;PMS5003;47664;51.660;-0.100;2023-08-01T04:45:34;8;7;
61760;PMS5003;47664;51.660;-0.100;2023-08-01T04:48:02;11;6;
61760;PMS5003;47664;51.660;-0.100;2023-08-01T04:50:30;7;5;
61760;PMS5003;47664;51.660;-0.100;2023-08-01T04:52:57;9;6;
61760;PMS5003;47664;51.660;-0.100;2023-08-01T04:55:24;5;5;
61760;PMS5003;47664;51.660;-0.100;2023-08-01T04:57:51;5;5;
61760;PMS5003;47664;51.660;-0.100;2023-08-01T05:00:18;9;7;
61760;PMS5003;47664;51.660;-0.100;2023-08-01T05:02:46;5;5;
61760;PMS5003;47664;51.660;-0.100;2023-08-01T05:05:13;7;6;
61760;PMS5003;47664;51.660;-0.100;2023-08-01T05:07:40;9;6;
61760;PMS5003;47664;51.660;-0.100;2023-08-01T05:10:08;5;5;
61760;PMS5003;47664;51.660;-0.100;2023-08-01T05:12:35;8;7;
61760;PMS5003;47664;51.660;-0.100;2023-08-01T05:15:03;11;10;
61760;PMS5003;47664;51.660;-0.100;2023-08-01T05:17:30;11;7;
61760;PMS5003;47664;51.660;-0.100;2023-08-01T05:19:58;12;10;
61760;PMS5003;47664;51.660;-0.100;2023-08-01T05:22:25;6;5;
61760;PMS5003;47664;51.660;-0.100;2023-08-01T05:24:52;13;6;
61760;PMS5003;47664;51.660;-0.100;2023-08-01T05:27:19;6;6;
61760;PMS5003;47664;51.660;-0.100;2023-08-01T05:29:46;9;6;
61760;PMS5003;47664;51.660;-0.100;2023-08-01T05:32:14;6;6;
61760;PMS5003;47664;51.660;-0.100;2023-08-01T05:34:41;8;6;
61760;PMS5003;47664;51.660;-0.100;2023-08-01T05:37:08;10;4;
61760;PMS5003;47664;51.660;-0.100;2023-08-01T05:39:35;5;3;
61760;PMS5003;47664;51.660;-0.100;2023-08-01T05:42:02;5;5;
61760;PMS5003;47664;51.660;-0.100;2023-08-01T05:44:29;7;6;
61760;PMS5003;47664;51.660;-0.100;2023-08-01T05:46:56;9;4;
61760;PMS5003;47664;51.660;-0.100;2023-08-01T05:49:23;5;5;
61760;PMS5003;47664;51.660;-0.100;2023-08-01T05:51:50;5;4;
61760;PMS5003;47664;51.660;-0.100;2023-08-01T05:54:18;9;6;
61760;PMS5003;47664;51.660;-0.100;2023-08-01T05:56:45;8;5;
61760;PMS5003;47664;51.660;-0.100;2023-08-01T05:59:12;4;4;
61760;PMS5003;47664;51.660;-0.100;2023-08-01T06:01:40;7;5;
61760;PMS5003;47664;51.660;-0.100;2023-08-01T06:04:07;5;3;
61760;PMS5003;47664;51.660;-0.100;2023-08-01T06:06:34;5;4;
61760;PMS5003;47664;51.660;-0.100;2023-08-01T06:09:01;9;4;
61760;PMS5003;47664;51.660;-0.100;2023-08-01T06:11:29;10;9;
61760;PMS5003;47664;51.660;-0.100;2023-08-01T06:13:56;4;3;
61760;PMS5003;47664;51.660;-0.100;2023-08-01T06:16:23;4;3;
61760;PMS5003;47664;51.660;-0.100;2023-08-01T06:18:50;7;4;
61760;PMS5003;47664;51.660;-0.100;2023-08-01T06:21:17;10;5;
61760;PMS5003;47664;51.660;-0.100;2023-08-01T06:23:45;6;5;
61760;PMS5003;47664;51.660;-0.100;2023-08-01T06:26:12;6;5;
61760;PMS5003;47664;51.660;-0.100;2023-08-01T06:28:39;11;4;
61760;PMS5003;47664;51.660;-0.100;2023-08-01T06:31:06;6;4;
61760;PMS5003;47664;51.660;-0.100;2023-08-01T06:33:33;8;8;
61760;PMS5003;47664;51.660;-0.100;2023-08-01T06:36:01;3;2;
61760;PMS5003;47664;51.660;-0.100;2023-08-01T06:38:28;7;6;
61760;PMS5003;47664;51.660;-0.100;2023-08-01T06:40:56;5;5;
61760;PMS5003;47664;51.660;-0.100;2023-08-01T06:43:23;5;4;
61760;PMS5003;47664;51.660;-0.100;2023-08-01T06:45:50;5;5;
61760;PMS5003;47664;51.660;-0.100;2023-08-01T06:48:17;5;5;
61760;PMS5003;47664;51.660;-0.100;2023-08-01T06:50:45;9;9;
61760;PMS5003;47664;51.660;-0.100;2023-08-01T06:53:12;6;4;
61760;PMS5003;47664;51.660;-0.100;2023-08-01T06:55:39;3;3;
61760;PMS5003;47664;51.660;-0.100;2023-08-01T06:58:07;4;2;
61760;PMS5003;47664;51.660;-0.100;2023-08-01T07:00:34;3;2;
61760;PMS5003;47664;51.660;-0.100;2023-08-01T07:03:02;7;4;
61760;PMS5003;47664;51.660;-0.100;2023-08-01T07:05:29;1;1;
61760;PMS5003;47664;51.660;-0.100;2023-08-01T07:07:55;3;3;
61760;PMS5003;47664;51.660;-0.100;2023-08-01T07:10:22;3;1;
61760;PMS5003;47664;51.660;-0.100;2023-08-01T07:12:49;2;2;
61760;PMS5003;47664;51.660;-0.100;2023-08-01T07:15:16;2;2;
61760;PMS5003;47664;51.660;-0.100;2023-08-01T07:17:43;5;3;
61760;PMS5003;47664;51.660;-0.100;2023-08-01T07:20:11;3;3;
61760;PMS5003;47664;51.660;-0.100;2023-08-01T07:22:38;2;2;
61760;PMS5003;47664;51.660;-0.100;2023-08-01T07:25:05;6;2;
61760;PMS5003;47664;51.660;-0.100;2023-08-01T07:27:33;3;3;
61760;PMS5003;47664;51.660;-0.100;2023-08-01T07:30:00;4;3;
61760;PMS5003;47664;51.660;-0.100;2023-08-01T07:32:26;4;2;
61760;PMS5003;47664;51.660;-0.100;2023-08-01T07:34:53;4;1;
61760;PMS5003;47664;51.660;-0.100;2023-08-01T07:37:21;3;1;
61760;PMS5003;47664;51.660;-0.100;2023-08-01T07:39:49;3;2;
61760;PMS5003;47664;51.660;-0.100;2023-08-01T07:42:16;5;1;
61760;PMS5003;47664;51.660;-0.100;2023-08-01T07:44:43;1;1;
61760;PMS5003;47664;51.660;-0.100;2023-08-01T07:47:11;2;2;
61760;PMS5003;47664;51.660;-0.100;2023-08-01T07:49:38;0;0;
61760;PMS5003;47664;51.660;-0.100;2023-08-01T07:52:05;3;1;
61760;PMS5003;47664;51.660;-0.100;2023-08-01T07:54:33;2;2;
61760;PMS5003;47664;51.660;-0.100;2023-08-01T07:56:59;3;2;
61760;PMS5003;47664;51.660;-0.100;2023-08-01T07:59:26;3;2;
61760;PMS5003;47664;51.660;-0.100;2023-08-01T08:01:53;3;3;
61760;PMS5003;47664;51.660;-0.100;2023-08-01T08:04:20;4;2;
61760;PMS5003;47664;51.660;-0.100;2023-08-01T08:06:47;1;1;
61760;PMS5003;47664;51.660;-0.100;2023-08-01T08:09:15;3;3;
61760;PMS5003;47664;51.660;-0.100;2023-08-01T08:11:42;1;1;
61760;PMS5003;47664;51.660;-0.100;2023-08-01T08:14:10;0;0;
61760;PMS5003;47664;51.660;-0.100;2023-08-01T08:16:38;1;1;
61760;PMS5003;47664;51.660;-0.100;2023-08-01T08:19:05;5;2;
61760;PMS5003;47664;51.660;-0.100;2023-08-01T08:21:32;4;4;
61760;PMS5003;47664;51.660;-0.100;2023-08-01T08:23:59;1;1;
61760;PMS5003;47664;51.660;-0.100;2023-08-01T08:26:27;1;1;
61760;PMS5003;47664;51.660;-0.100;2023-08-01T08:28:53;1;1;
61760;PMS5003;47664;51.660;-0.100;2023-08-01T08:31:20;1;1;
61760;PMS5003;47664;51.660;-0.100;2023-08-01T08:33:48;1;0;
61760;PMS5003;47664;51.660;-0.100;2023-08-01T08:36:15;2;0;
61760;PMS5003;47664;51.660;-0.100;2023-08-01T08:38:42;1;1;
61760;PMS5003;47664;51.660;-0.100;2023-08-01T08:41:09;3;2;
61760;PMS5003;47664;51.660;-0.100;2023-08-01T08:43:40;4;2;
61760;PMS5003;47664;51.660;-0.100;2023-08-01T08:46:08;2;2;
61760;PMS5003;47664;51.660;-0.100;2023-08-01T08:48:35;2;1;
61760;PMS5003;47664;51.660;-0.100;2023-08-01T08:51:05;1;1;
61760;PMS5003;47664;51.660;-0.100;2023-08-01T08:53:34;1;1;
61760;PMS5003;47664;51.660;-0.100;2023-08-01T08:56:02;7;4;
61760;PMS5003;47664;51.660;-0.100;2023-08-01T08:58:30;1;1;
61760;PMS5003;47664;51.660;-0.100;2023-08-01T09:00:58;1;1;
61760;PMS5003;47664;51.660;-0.100;2023-08-01T09:03:28;2;2;
61760;PMS5003;47664;51.660;-0.100;2023-08-01T09:05:58;1;0;
61760;PMS5003;47664;51.660;-0.100;2023-08-01T09:08:31;2;1;
61760;PMS5003;47664;51.660;-0.100;2023-08-01T09:11:06;1;1;
61760;PMS5003;47664;51.660;-0.100;2023-08-01T09:13:33;0;0;
61760;PMS5003;47664;51.660;-0.100;2023-08-01T09:15:59;0;0;
61760;PMS5003;47664;51.660;-0.100;2023-08-01T09:18:28;1;1;
61760;PMS5003;47664;51.660;-0.100;2023-08-01T09:20:55;3;1;
61760;PMS5003;47664;51.660;-0.100;2023-08-01T09:23:24;1;1;
61760;PMS5003;47664;51.660;-0.100;2023-08-01T09:25:51;1;1;
61760;PMS5003;47664;51.660;-0.100;2023-08-01T09:28:18;3;0;
61760;PMS5003;47664;51.660;-0.100;2023-08-01T09:30:47;3;1;
61760;PMS5003;47664;51.660;-0.100;2023-08-01T09:33:15;7;7;
61760;PMS5003;47664;51.660;-0.100;2023-08-01T09:35:44;0;0;
61760;PMS5003;47664;51.660;-0.100;2023-08-01T09:38:12;1;1;
61760;PMS5003;47664;51.660;-0.100;2023-08-01T09:40:40;1;1;
61760;PMS5003;47664;51.660;-0.100;2023-08-01T09:43:08;0;0;
61760;PMS5003;47664;51.660;-0.100;2023-08-01T09:45:36;0;0;
61760;PMS5003;47664;51.660;-0.100;2023-08-01T09:48:04;2;1;
61760;PMS5003;47664;51.660;-0.100;2023-08-01T09:50:32;2;0;
61760;PMS5003;47664;51.660;-0.100;2023-08-01T09:53:07;1;1;
61760;PMS5003;47664;51.660;-0.100;2023-08-01T09:55:34;0;0;
61760;PMS5003;47664;51.660;-0.100;2023-08-01T09:58:01;1;1;
61760;PMS5003;47664;51.660;-0.100;2023-08-01T10:00:30;1;1;
61760;PMS5003;47664;51.660;-0.100;2023-08-01T10:02:57;2;0;
61760;PMS5003;47664;51.660;-0.100;2023-08-01T10:05:25;2;0;
61760;PMS5003;47664;51.660;-0.100;2023-08-01T10:07:55;1;1;
61760;PMS5003;47664;51.660;-0.100;2023-08-01T10:10:25;2;1;
61760;PMS5003;47664;51.660;-0.100;2023-08-01T10:12:53;1;1;
61760;PMS5003;47664;51.660;-0.100;2023-08-01T10:15:23;2;0;
61760;PMS5003;47664;51.660;-0.100;2023-08-01T10:17:51;3;3;
61760;PMS5003;47664;51.660;-0.100;2023-08-01T10:20:18;1;1;
61760;PMS5003;47664;51.660;-0.100;2023-08-01T10:22:47;1;1;
61760;PMS5003;47664;51.660;-0.100;2023-08-01T10:25:16;1;0;
61760;PMS5003;47664;51.660;-0.100;2023-08-01T10:27:45;0;0;
61760;PMS5003;47664;51.660;-0.100;2023-08-01T10:30:25;3;1;
61760;PMS5003;47664;51.660;-0.100;2023-08-01T10:32:54;0;0;
61760;PMS5003;47664;51.660;-0.100;2023-08-01T10:35:31;1;1;
61760;PMS5003;47664;51.660;-0.100;2023-08-01T10:38:03;3;1;
61760;PMS5003;47664;51.660;-0.100;2023-08-01T10:40:33;1;1;
61760;PMS5003;47664;51.660;-0.100;2023-08-01T10:43:01;2;1;
61760;PMS5003;47664;51.660;-0.100;2023-08-01T10:45:27;1;1;
61760;PMS5003;47664;51.660;-0.100;2023-08-01T10:48:05;2;2;
61760;PMS5003;47664;51.660;-0.100;2023-08-01T10:50:32;0;0;
61760;PMS5003;47664;51.660;-0.100;2023-08-01T10:53:02;2;2;
61760;PMS5003;47664;51.660;-0.100;2023-08-01T10:55:39;0;0;
61760;PMS5003;47664;51.660;-0.100;2023-08-01T10:58:07;0;0;
61760;PMS5003;47664;51.660;-0.100;2023-08-01T11:00:34;3;0;
61760;PMS5003;47664;51.660;-0.100;2023-08-01T11:03:01;1;0;
61760;PMS5003;47664;51.660;-0.100;2023-08-01T11:05:28;0;0;
61760;PMS5003;47664;51.660;-0.100;2023-08-01T11:07:55;0;0;
61760;PMS5003;47664;51.660;-0.100;2023-08-01T11:10:24;2;0;
61760;PMS5003;47664;51.660;-0.100;2023-08-01T11:12:52;2;1;
61760;PMS5003;47664;51.660;-0.100;2023-08-01T11:15:20;0;0;
61760;PMS5003;47664;51.660;-0.100;2023-08-01T11:17:48;1;0;
61760;PMS5003;47664;51.660;-0.100;2023-08-01T11:20:17;1;1;
61760;PMS5003;47664;51.660;-0.100;2023-08-01T11:22:53;0;0;
61760;PMS5003;47664;51.660;-0.100;2023-08-01T11:25:31;0;0;
61760;PMS5003;47664;51.660;-0.100;2023-08-01T11:28:01;0;0;
61760;PMS5003;47664;51.660;-0.100;2023-08-01T11:30:31;0;0;
61760;PMS5003;47664;51.660;-0.100;2023-08-01T11:32:59;0;0;
61760;PMS5003;47664;51.660;-0.100;2023-08-01T11:35:27;4;1;
61760;PMS5003;47664;51.660;-0.100;2023-08-01T11:37:54;0;0;
61760;PMS5003;47664;51.660;-0.100;2023-08-01T11:40:22;2;2;
61760;PMS5003;47664;51.660;-0.100;2023-08-01T11:42:50;0;0;
61760;PMS5003;47664;51.660;-0.100;2023-08-01T11:45:18;1;1;
61760;PMS5003;47664;51.660;-0.100;2023-08-01T11:47:47;2;2;
61760;PMS5003;47664;51.660;-0.100;2023-08-01T11:50:14;2;2;
61760;PMS5003;47664;51.660;-0.100;2023-08-01T11:52:47;2;2;
61760;PMS5003;47664;51.660;-0.100;2023-08-01T11:55:18;0;0;
61760;PMS5003;47664;51.660;-0.100;2023-08-01T11:57:54;1;1;
61760;PMS5003;47664;51.660;-0.100;2023-08-01T12:00:22;1;1;
61760;PMS5003;47664;51.660;-0.100;2023-08-01T12:02:51;1;1;
61760;PMS5003;47664;51.660;-0.100;2023-08-01T12:05:21;1;0;
61760;PMS5003;47664;51.660;-0.100;2023-08-01T12:07:49;1;1;
61760;PMS5003;47664;51.660;-0.100;2023-08-01T12:10:16;0;0;
61760;PMS5003;47664;51.660;-0.100;2023-08-01T12:12:44;5;1;
61760;PMS5003;47664;51.660;-0.100;2023-08-01T12:15:13;3;3;
61760;PMS5003;47664;51.660;-0.100;2023-08-01T12:17:40;2;0;
61760;PMS5003;47664;51.660;-0.100;2023-08-01T12:20:08;0;0;
61760;PMS5003;47664;51.660;-0.100;2023-08-01T12:22:36;0;0;
61760;PMS5003;47664;51.660;-0.100;2023-08-01T12:25:03;0;0;
61760;PMS5003;47664;51.660;-0.100;2023-08-01T12:27:30;2;2;
61760;PMS5003;47664;51.660;-0.100;2023-08-01T12:29:57;0;0;
61760;PMS5003;47664;51.660;-0.100;2023-08-01T12:32:24;0;0;
61760;PMS5003;47664;51.660;-0.100;2023-08-01T12:34:51;2;0;
61760;PMS5003;47664;51.660;-0.100;2023-08-01T12:37:17;1;0;
61760;PMS5003;47664;51.660;-0.100;2023-08-01T12:39:45;4;1;
61760;PMS5003;47664;51.660;-0.100;2023-08-01T12:42:12;2;0;
61760;PMS5003;47664;51.660;-0.100;2023-08-01T12:44:39;1;1;
61760;PMS5003;47664;51.660;-0.100;2023-08-01T12:47:06;0;0;
61760;PMS5003;47664;51.660;-0.100;2023-08-01T12:49:32;2;0;
61760;PMS5003;47664;51.660;-0.100;2023-08-01T12:51:59;0;0;
61760;PMS5003;47664;51.660;-0.100;2023-08-01T12:54:29;1;1;
61760;PMS5003;47664;51.660;-0.100;2023-08-01T12:56:56;1;1;
61760;PMS5003;47664;51.660;-0.100;2023-08-01T12:59:22;3;0;
61760;PMS5003;47664;51.660;-0.100;2023-08-01T13:01:49;5;1;
61760;PMS5003;47664;51.660;-0.100;2023-08-01T13:04:16;3;0;
61760;PMS5003;47664;51.660;-0.100;2023-08-01T13:06:43;1;1;
61760;PMS5003;47664;51.660;-0.100;2023-08-01T13:09:11;0;0;
61760;PMS5003;47664;51.660;-0.100;2023-08-01T13:11:38;2;0;
61760;PMS5003;47664;51.660;-0.100;2023-08-01T13:14:05;3;1;
61760;PMS5003;47664;51.660;-0.100;2023-08-01T13:16:32;1;0;
61760;PMS5003;47664;51.660;-0.100;2023-08-01T13:18:59;0;0;
61760;PMS5003;47664;51.660;-0.100;2023-08-01T13:21:26;5;1;
61760;PMS5003;47664;51.660;-0.100;2023-08-01T13:23:57;1;1;
61760;PMS5003;47664;51.660;-0.100;2023-08-01T13:26:24;1;1;
61760;PMS5003;47664;51.660;-0.100;2023-08-01T13:28:51;0;0;
61760;PMS5003;47664;51.660;-0.100;2023-08-01T13:31:18;0;0;
61760;PMS5003;47664;51.660;-0.100;2023-08-01T13:33:45;0;0;
61760;PMS5003;47664;51.660;-0.100;2023-08-01T13:36:13;3;0;
61760;PMS5003;47664;51.660;-0.100;2023-08-01T13:38:40;1;1;
61760;PMS5003;47664;51.660;-0.100;2023-08-01T13:41:06;0;0;
61760;PMS5003;47664;51.660;-0.100;2023-08-01T13:43:33;1;1;
61760;PMS5003;47664;51.660;-0.100;2023-08-01T13:46:00;1;0;
61760;PMS5003;47664;51.660;-0.100;2023-08-01T13:48:28;1;1;
61760;PMS5003;47664;51.660;-0.100;2023-08-01T13:50:57;2;0;
61760;PMS5003;47664;51.660;-0.100;2023-08-01T13:53:24;3;1;
61760;PMS5003;47664;51.660;-0.100;2023-08-01T13:55:51;7;1;
61760;PMS5003;47664;51.660;-0.100;2023-08-01T13:58:18;1;1;
61760;PMS5003;47664;51.660;-0.100;2023-08-01T14:00:45;1;1;
61760;PMS5003;47664;51.660;-0.100;2023-08-01T14:03:12;0;0;
61760;PMS5003;47664;51.660;-0.100;2023-08-01T14:05:39;0;0;
61760;PMS5003;47664;51.660;-0.100;2023-08-01T14:08:06;2;0;
61760;PMS5003;47664;51.660;-0.100;2023-08-01T14:10:33;2;0;
61760;PMS5003;47664;51.660;-0.100;2023-08-01T14:13:00;0;0;
61760;PMS5003;47664;51.660;-0.100;2023-08-01T14:15:27;2;1;
61760;PMS5003;47664;51.660;-0.100;2023-08-01T14:17:54;3;1;
61760;PMS5003;47664;51.660;-0.100;2023-08-01T14:20:21;2;2;
61760;PMS5003;47664;51.660;-0.100;2023-08-01T14:22:48;2;1;
61760;PMS5003;47664;51.660;-0.100;2023-08-01T14:25:15;1;0;
61760;PMS5003;47664;51.660;-0.100;2023-08-01T14:27:42;1;1;
61760;PMS5003;47664;51.660;-0.100;2023-08-01T14:30:09;1;1;
61760;PMS5003;47664;51.660;-0.100;2023-08-01T14:32:37;2;2;
61760;PMS5003;47664;51.660;-0.100;2023-08-01T14:35:05;0;0;
61760;PMS5003;47664;51.660;-0.100;2023-08-01T14:37:33;1;1;
61760;PMS5003;47664;51.660;-0.100;2023-08-01T14:40:00;1;1;
61760;PMS5003;47664;51.660;-0.100;2023-08-01T14:42:27;2;2;
61760;PMS5003;47664;51.660;-0.100;2023-08-01T14:44:53;1;1;
61760;PMS5003;47664;51.660;-0.100;2023-08-01T14:47:21;2;2;
61760;PMS5003;47664;51.660;-0.100;2023-08-01T14:49:48;2;0;
61760;PMS5003;47664;51.660;-0.100;2023-08-01T14:52:16;1;0;
61760;PMS5003;47664;51.660;-0.100;2023-08-01T14:54:42;1;1;
61760;PMS5003;47664;51.660;-0.100;2023-08-01T14:57:09;1;1;
61760;PMS5003;47664;51.660;-0.100;2023-08-01T14:59:36;2;2;
61760;PMS5003;47664;51.660;-0.100;2023-08-01T15:02:03;1;1;
61760;PMS5003;47664;51.660;-0.100;2023-08-01T15:04:31;3;1;
61760;PMS5003;47664;51.660;-0.100;2023-08-01T15:06:58;1;1;
61760;PMS5003;47664;51.660;-0.100;2023-08-01T15:09:27;1;1;
61760;PMS5003;47664;51.660;-0.100;2023-08-01T15:11:54;0;0;
61760;PMS5003;47664;51.660;-0.100;2023-08-01T15:14:20;2;1;
61760;PMS5003;47664;51.660;-0.100;2023-08-01T15:16:47;1;1;
61760;PMS5003;47664;51.660;-0.100;2023-08-01T15:19:15;3;2;
61760;PMS5003;47664;51.660;-0.100;2023-08-01T15:21:42;1;0;
61760;PMS5003;47664;51.660;-0.100;2023-08-01T15:24:10;2;1;
61760;PMS5003;47664;51.660;-0.100;2023-08-01T15:26:37;2;0;
61760;PMS5003;47664;51.660;-0.100;2023-08-01T15:29:04;1;1;
61760;PMS5003;47664;51.660;-0.100;2023-08-01T15:31:31;1;1;
61760;PMS5003;47664;51.660;-0.100;2023-08-01T15:33:58;1;0;
61760;PMS5003;47664;51.660;-0.100;2023-08-01T15:36:25;1;1;
61760;PMS5003;47664;51.660;-0.100;2023-08-01T15:38:54;1;1;
61760;PMS5003;47664;51.660;-0.100;2023-08-01T15:41:22;0;0;
61760;PMS5003;47664;51.660;-0.100;2023-08-01T15:43:49;0;0;
61760;PMS5003;47664;51.660;-0.100;2023-08-01T15:46:16;1;1;
61760;PMS5003;47664;51.660;-0.100;2023-08-01T15:48:43;3;0;
61760;PMS5003;47664;51.660;-0.100;2023-08-01T15:51:11;1;1;
61760;PMS5003;47664;51.660;-0.100;2023-08-01T15:53:38;1;1;
61760;PMS5003;47664;51.660;-0.100;2023-08-01T15:56:06;0;0;
61760;PMS5003;47664;51.660;-0.100;2023-08-01T15:58:35;6;5;
61760;PMS5003;47664;51.660;-0.100;2023-08-01T16:01:03;0;0;
61760;PMS5003;47664;51.660;-0.100;2023-08-01T16:03:30;1;1;
61760;PMS5003;47664;51.660;-0.100;2023-08-01T16:05:56;1;1;
61760;PMS5003;47664;51.660;-0.100;2023-08-01T16:08:23;1;1;
61760;PMS5003;47664;51.660;-0.100;2023-08-01T16:10:50;2;2;
61760;PMS5003;47664;51.660;-0.100;2023-08-01T16:13:17;0;0;
61760;PMS5003;47664;51.660;-0.100;2023-08-01T16:15:45;1;1;
61760;PMS5003;47664;51.660;-0.100;2023-08-01T16:18:12;1;1;
61760;PMS5003;47664;51.660;-0.100;2023-08-01T16:20:39;0;0;
61760;PMS5003;47664;51.660;-0.100;2023-08-01T16:23:06;1;1;
61760;PMS5003;47664;51.660;-0.100;2023-08-01T16:25:33;1;1;
61760;PMS5003;47664;51.660;-0.100;2023-08-01T16:28:00;0;0;
61760;PMS5003;47664;51.660;-0.100;2023-08-01T16:30:26;1;1;
61760;PMS5003;47664;51.660;-0.100;2023-08-01T16:32:54;1;1;